createdAt,value
2017-10-22T00:00:31.743Z,0.00
2017-10-22T00:01:31.750Z,0.00
2017-10-22T00:03:25.110Z,0.00
2017-10-22T00:04:25.174Z,0.00
2017-10-22T00:06:18.547Z,0.00
2017-10-22T00:07:18.554Z,0.00
2017-10-22T00:09:11.928Z,0.00
2017-10-22T00:10:11.943Z,0.00
2017-10-22T00:12:05.385Z,0.00
2017-10-22T00:13:05.370Z,0.00
2017-10-22T00:14:58.781Z,0.00
2017-10-22T00:15:58.788Z,0.00
2017-10-22T00:17:53.188Z,0.00
2017-10-22T00:18:53.149Z,0.00
2017-10-22T00:20:46.599Z,0.00
2017-10-22T00:21:46.605Z,0.00
2017-10-22T00:23:40.069Z,0.00
2017-10-22T00:24:39.967Z,0.00
2017-10-22T00:26:33.375Z,0.00
2017-10-22T00:27:33.402Z,0.00
2017-10-22T00:29:26.849Z,0.00
2017-10-22T00:30:26.843Z,0.00
2017-10-22T00:32:20.271Z,0.00
2017-10-22T00:33:20.197Z,0.00
2017-10-22T00:35:13.648Z,0.00
2017-10-22T00:36:13.600Z,0.00
2017-10-22T00:38:07.083Z,0.00
2017-10-22T00:39:07.034Z,0.00
2017-10-22T00:41:00.468Z,0.00
2017-10-22T00:42:00.428Z,0.00
2017-10-22T00:43:53.937Z,0.00
2017-10-22T00:44:53.861Z,0.00
2017-10-22T00:46:47.263Z,0.00
2017-10-22T00:47:47.274Z,0.00
2017-10-22T00:49:40.641Z,0.00
2017-10-22T00:50:40.659Z,0.00
2017-10-22T00:52:34.094Z,0.00
2017-10-22T00:53:34.100Z,0.00
2017-10-22T00:55:27.447Z,0.00
2017-10-22T00:56:27.539Z,0.00
2017-10-22T00:58:20.945Z,0.00
2017-10-22T00:59:20.933Z,0.00
2017-10-22T01:01:14.331Z,0.00
2017-10-22T01:02:14.313Z,0.00
2017-10-22T01:04:07.703Z,0.00
2017-10-22T01:05:07.885Z,0.00
2017-10-22T01:07:01.120Z,0.00
2017-10-22T01:08:01.099Z,0.00
2017-10-22T01:09:54.539Z,0.00
2017-10-22T01:10:54.540Z,0.00
2017-10-22T01:12:47.942Z,0.00
2017-10-22T01:13:47.959Z,0.00
2017-10-22T01:15:41.382Z,0.00
2017-10-22T01:16:41.376Z,0.00
2017-10-22T01:18:34.756Z,0.00
2017-10-22T01:19:34.760Z,0.00
2017-10-22T01:21:28.130Z,0.00
2017-10-22T01:22:28.152Z,0.00
2017-10-22T01:24:21.545Z,0.00
2017-10-22T01:25:21.624Z,0.00
2017-10-22T01:27:14.911Z,0.00
2017-10-22T01:28:14.945Z,0.00
2017-10-22T01:30:08.396Z,0.00
2017-10-22T01:31:08.341Z,0.00
2017-10-22T01:33:01.752Z,0.00
2017-10-22T01:34:01.836Z,0.00
2017-10-22T01:35:55.211Z,0.00
2017-10-22T01:36:55.240Z,0.00
2017-10-22T01:38:48.595Z,0.00
2017-10-22T01:39:48.604Z,0.00
2017-10-22T01:41:41.976Z,0.00
2017-10-22T01:42:49.616Z,0.00
2017-10-22T01:44:35.441Z,0.00
2017-10-22T01:45:35.433Z,0.00
2017-10-22T01:47:28.778Z,0.00
2017-10-22T01:48:28.800Z,0.00
2017-10-22T01:50:22.194Z,0.00
2017-10-22T01:51:22.193Z,0.00
2017-10-22T01:53:15.549Z,0.00
2017-10-22T01:54:15.573Z,0.00
2017-10-22T01:56:08.741Z,0.00
2017-10-22T01:57:09.231Z,0.00
2017-10-22T01:59:02.110Z,0.00
2017-10-22T02:00:02.144Z,0.00
2017-10-22T02:01:55.518Z,0.00
2017-10-22T02:02:55.528Z,0.00
2017-10-22T02:05:02.052Z,0.00
2017-10-22T02:06:01.704Z,0.00
2017-10-22T02:07:55.077Z,0.00
2017-10-22T02:08:55.041Z,0.00
2017-10-22T02:10:48.499Z,0.00
2017-10-22T02:11:48.467Z,0.00
2017-10-22T02:13:42.859Z,0.00
2017-10-22T02:14:43.747Z,0.00
2017-10-22T02:16:36.363Z,0.00
2017-10-22T02:17:36.329Z,0.00
2017-10-22T02:19:29.789Z,0.00
2017-10-22T02:20:29.790Z,0.00
2017-10-22T02:22:23.270Z,0.00
2017-10-22T02:23:23.249Z,0.00
2017-10-22T02:25:17.563Z,0.00
2017-10-22T02:26:17.699Z,0.00
2017-10-22T02:28:10.990Z,0.00
2017-10-22T02:29:11.003Z,0.00
2017-10-22T02:31:04.432Z,0.00
2017-10-22T02:32:04.477Z,0.00
2017-10-22T02:33:57.807Z,0.00
2017-10-22T02:34:57.821Z,0.00
2017-10-22T02:36:51.195Z,0.00
2017-10-22T02:37:51.192Z,0.00
2017-10-22T02:39:44.624Z,0.00
2017-10-22T02:40:44.641Z,0.00
2017-10-22T02:42:37.992Z,0.00
2017-10-22T02:43:38.027Z,0.00
2017-10-22T02:45:31.406Z,0.00
2017-10-22T02:46:31.432Z,0.00
2017-10-22T02:48:24.843Z,0.00
2017-10-22T02:49:24.811Z,0.00
2017-10-22T02:51:18.192Z,0.00
2017-10-22T02:52:18.194Z,0.00
2017-10-22T02:54:11.608Z,0.00
2017-10-22T02:55:11.582Z,0.00
2017-10-22T02:57:04.958Z,0.00
2017-10-22T02:58:05.030Z,0.00
2017-10-22T02:59:58.367Z,0.00
2017-10-22T03:00:58.362Z,0.00
2017-10-22T03:02:51.756Z,0.00
2017-10-22T03:03:51.782Z,0.00
2017-10-22T03:05:45.174Z,0.00
2017-10-22T03:06:45.174Z,0.00
2017-10-22T03:08:38.523Z,0.00
2017-10-22T03:09:38.574Z,0.00
2017-10-22T03:11:31.941Z,0.00
2017-10-22T03:12:31.956Z,0.00
2017-10-22T03:14:25.344Z,0.00
2017-10-22T03:15:25.352Z,0.00
2017-10-22T03:17:18.739Z,0.00
2017-10-22T03:18:18.733Z,0.00
2017-10-22T03:20:12.171Z,0.00
2017-10-22T03:21:12.150Z,0.00
2017-10-22T03:23:05.545Z,0.00
2017-10-22T03:24:05.549Z,0.00
2017-10-22T03:25:58.963Z,0.00
2017-10-22T03:26:58.962Z,0.00
2017-10-22T03:28:52.304Z,0.00
2017-10-22T03:29:52.335Z,0.00
2017-10-22T03:31:45.796Z,0.00
2017-10-22T03:32:45.753Z,0.00
2017-10-22T03:34:39.136Z,0.00
2017-10-22T03:35:39.121Z,0.00
2017-10-22T03:37:32.529Z,0.00
2017-10-22T03:38:32.514Z,0.00
2017-10-22T03:40:25.896Z,0.00
2017-10-22T03:41:25.939Z,0.00
2017-10-22T03:43:19.313Z,0.00
2017-10-22T03:44:19.319Z,0.00
2017-10-22T03:46:12.707Z,0.00
2017-10-22T03:47:12.707Z,0.00
2017-10-22T03:49:06.151Z,0.00
2017-10-22T03:50:06.124Z,0.00
2017-10-22T03:51:59.511Z,0.00
2017-10-22T03:52:59.531Z,0.00
2017-10-22T03:54:52.926Z,0.00
2017-10-22T03:55:52.927Z,0.00
2017-10-22T03:57:46.300Z,0.00
2017-10-22T03:58:46.320Z,0.00
2017-10-22T04:00:39.738Z,0.00
2017-10-22T04:01:39.710Z,0.00
2017-10-22T04:03:33.075Z,0.00
2017-10-22T04:04:33.089Z,0.00
2017-10-22T04:06:26.512Z,0.00
2017-10-22T04:07:26.503Z,0.00
2017-10-22T04:09:19.869Z,0.00
2017-10-22T04:10:19.912Z,0.00
2017-10-22T04:12:13.326Z,0.00
2017-10-22T04:13:13.293Z,0.00
2017-10-22T04:15:06.668Z,0.00
2017-10-22T04:16:06.702Z,0.00
2017-10-22T04:18:00.117Z,0.00
2017-10-22T04:19:00.092Z,0.00
2017-10-22T04:20:53.482Z,0.00
2017-10-22T04:21:53.483Z,0.00
2017-10-22T04:23:46.912Z,0.00
2017-10-22T04:24:46.892Z,0.00
2017-10-22T04:26:40.268Z,0.00
2017-10-22T04:27:40.248Z,0.00
2017-10-22T04:29:33.683Z,0.00
2017-10-22T04:30:33.648Z,0.00
2017-10-22T04:32:27.044Z,0.00
2017-10-22T04:33:27.052Z,0.00
2017-10-22T04:35:20.441Z,0.00
2017-10-22T04:36:20.446Z,0.00
2017-10-22T04:38:13.828Z,0.00
2017-10-22T04:39:13.831Z,0.00
2017-10-22T04:41:07.291Z,0.00
2017-10-22T04:42:07.266Z,0.00
2017-10-22T04:44:00.644Z,0.00
2017-10-22T04:45:00.643Z,0.00
2017-10-22T04:46:54.052Z,0.00
2017-10-22T04:47:54.043Z,0.00
2017-10-22T04:49:47.484Z,0.00
2017-10-22T04:50:47.454Z,0.00
2017-10-22T04:52:40.822Z,0.00
2017-10-22T04:53:40.835Z,0.00
2017-10-22T04:55:34.248Z,0.00
2017-10-22T04:56:34.225Z,0.00
2017-10-22T04:58:27.625Z,0.00
2017-10-22T04:59:27.635Z,0.00
2017-10-22T05:01:21.020Z,0.00
2017-10-22T05:02:21.036Z,0.00
2017-10-22T05:04:14.402Z,0.00
2017-10-22T05:05:14.430Z,0.00
2017-10-22T05:07:07.843Z,0.00
2017-10-22T05:08:07.827Z,0.00
2017-10-22T05:10:01.188Z,0.00
2017-10-22T05:11:01.186Z,0.00
2017-10-22T05:12:54.619Z,0.00
2017-10-22T05:13:54.597Z,0.00
2017-10-22T05:15:47.969Z,0.00
2017-10-22T05:16:47.989Z,0.00
2017-10-22T05:18:41.401Z,0.00
2017-10-22T05:19:41.396Z,0.00
2017-10-22T05:21:34.798Z,0.00
2017-10-22T05:22:34.797Z,0.00
2017-10-22T05:24:28.188Z,0.00
2017-10-22T05:25:28.181Z,0.00
2017-10-22T05:27:21.543Z,0.00
2017-10-22T05:28:21.549Z,0.00
2017-10-22T05:30:14.961Z,0.00
2017-10-22T05:31:14.978Z,0.00
2017-10-22T05:33:08.373Z,0.00
2017-10-22T05:34:08.333Z,0.00
2017-10-22T05:36:01.732Z,0.00
2017-10-22T05:37:01.751Z,0.00
2017-10-22T05:38:55.166Z,0.00
2017-10-22T05:39:55.152Z,0.00
2017-10-22T05:41:48.539Z,0.00
2017-10-22T05:42:48.527Z,0.00
2017-10-22T05:44:41.956Z,0.00
2017-10-22T05:45:41.938Z,0.00
2017-10-22T05:47:35.309Z,0.00
2017-10-22T05:48:35.329Z,0.00
2017-10-22T05:50:28.725Z,5.63
2017-10-22T05:51:28.716Z,5.63
2017-10-22T05:53:22.089Z,5.63
2017-10-22T05:54:22.117Z,5.63
2017-10-22T05:56:15.527Z,5.63
2017-10-22T05:57:15.508Z,5.63
2017-10-22T05:59:08.889Z,11.25
2017-10-22T06:00:08.906Z,11.25
2017-10-22T06:02:02.292Z,11.25
2017-10-22T06:03:02.301Z,11.25
2017-10-22T06:04:55.676Z,11.25
2017-10-22T06:05:55.666Z,11.25
2017-10-22T06:07:49.092Z,16.88
2017-10-22T06:08:49.082Z,16.88
2017-10-22T06:10:42.447Z,16.88
2017-10-22T06:11:42.471Z,16.88
2017-10-22T06:13:35.866Z,16.88
2017-10-22T06:14:35.855Z,22.50
2017-10-22T06:16:29.248Z,22.50
2017-10-22T06:17:29.268Z,22.50
2017-10-22T06:19:22.665Z,28.13
2017-10-22T06:20:22.677Z,28.13
2017-10-22T06:22:16.033Z,28.13
2017-10-22T06:23:16.076Z,28.13
2017-10-22T06:25:09.474Z,33.75
2017-10-22T06:26:09.465Z,33.75
2017-10-22T06:28:02.834Z,39.38
2017-10-22T06:29:02.851Z,39.38
2017-10-22T06:30:56.260Z,39.38
2017-10-22T06:31:56.252Z,39.38
2017-10-22T06:33:49.634Z,39.38
2017-10-22T06:34:49.629Z,39.38
2017-10-22T06:36:43.034Z,39.38
2017-10-22T06:37:43.050Z,39.38
2017-10-22T06:39:36.438Z,39.38
2017-10-22T06:40:36.427Z,39.38
2017-10-22T06:42:29.826Z,50.63
2017-10-22T06:43:29.814Z,45.00
2017-10-22T06:45:23.192Z,45.00
2017-10-22T06:46:23.212Z,45.00
2017-10-22T06:48:16.614Z,50.63
2017-10-22T06:49:16.595Z,50.63
2017-10-22T06:51:10.001Z,56.25
2017-10-22T06:52:09.989Z,61.88
2017-10-22T06:54:03.401Z,73.13
2017-10-22T06:55:03.403Z,73.13
2017-10-22T06:56:56.769Z,73.13
2017-10-22T06:57:56.781Z,73.13
2017-10-22T06:59:50.181Z,84.38
2017-10-22T07:00:50.219Z,78.75
2017-10-22T07:02:43.641Z,73.13
2017-10-22T07:03:43.574Z,78.75
2017-10-22T07:05:36.960Z,84.38
2017-10-22T07:06:36.970Z,90.00
2017-10-22T07:08:30.371Z,95.63
2017-10-22T07:09:30.353Z,101.25
2017-10-22T07:11:23.757Z,112.50
2017-10-22T07:12:23.752Z,112.50
2017-10-22T07:14:17.175Z,106.88
2017-10-22T07:15:17.167Z,118.13
2017-10-22T07:17:10.544Z,135.00
2017-10-22T07:18:10.556Z,135.00
2017-10-22T07:20:03.950Z,140.63
2017-10-22T07:21:03.934Z,146.25
2017-10-22T07:22:57.325Z,135.00
2017-10-22T07:23:57.361Z,140.63
2017-10-22T07:25:50.756Z,135.00
2017-10-22T07:26:50.777Z,140.63
2017-10-22T07:28:44.150Z,151.88
2017-10-22T07:29:44.149Z,157.50
2017-10-22T07:31:37.551Z,168.75
2017-10-22T07:32:37.537Z,168.75
2017-10-22T07:34:30.924Z,163.13
2017-10-22T07:35:30.929Z,157.50
2017-10-22T07:37:24.338Z,168.75
2017-10-22T07:38:24.323Z,157.50
2017-10-22T07:40:17.752Z,157.50
2017-10-22T07:41:17.731Z,146.25
2017-10-22T07:43:11.109Z,135.00
2017-10-22T07:44:11.111Z,123.75
2017-10-22T07:46:04.522Z,123.75
2017-10-22T07:47:04.505Z,123.75
2017-10-22T07:48:57.898Z,106.88
2017-10-22T07:49:57.897Z,101.25
2017-10-22T07:51:51.309Z,95.63
2017-10-22T07:52:51.290Z,90.00
2017-10-22T07:54:44.697Z,95.63
2017-10-22T07:55:44.713Z,95.63
2017-10-22T07:57:38.112Z,90.00
2017-10-22T07:58:38.117Z,84.38
2017-10-22T08:00:31.541Z,95.63
2017-10-22T08:01:31.484Z,90.00
2017-10-22T08:03:51.897Z,84.38
2017-10-22T08:04:50.748Z,84.38
2017-10-22T08:06:44.117Z,95.63
2017-10-22T08:07:44.254Z,95.63
2017-10-22T08:09:37.458Z,90.00
2017-10-22T08:10:37.472Z,90.00
2017-10-22T08:12:30.903Z,84.38
2017-10-22T08:13:30.884Z,84.38
2017-10-22T08:15:24.259Z,90.00
2017-10-22T08:16:24.283Z,90.00
2017-10-22T08:18:18.228Z,123.75
2017-10-22T08:19:17.687Z,112.50
2017-10-22T08:21:11.040Z,112.50
2017-10-22T08:22:10.815Z,95.63
2017-10-22T08:24:04.192Z,106.88
2017-10-22T08:25:04.792Z,135.00
2017-10-22T08:26:57.560Z,140.63
2017-10-22T08:27:57.568Z,112.50
2017-10-22T08:29:51.014Z,101.25
2017-10-22T08:30:50.994Z,95.63
2017-10-22T08:32:44.420Z,112.50
2017-10-22T08:33:44.414Z,106.88
2017-10-22T08:35:37.796Z,151.88
2017-10-22T08:36:37.758Z,174.38
2017-10-22T08:38:31.137Z,140.63
2017-10-22T08:39:31.141Z,202.50
2017-10-22T08:41:24.554Z,202.50
2017-10-22T08:42:24.533Z,247.50
2017-10-22T08:44:17.934Z,241.88
2017-10-22T08:45:17.961Z,253.13
2017-10-22T08:47:11.381Z,270.00
2017-10-22T08:48:11.364Z,241.88
2017-10-22T08:50:04.777Z,213.75
2017-10-22T08:51:04.745Z,191.25
2017-10-22T08:52:58.158Z,208.13
2017-10-22T08:53:58.163Z,202.50
2017-10-22T08:55:51.127Z,241.88
2017-10-22T08:56:51.132Z,258.75
2017-10-22T08:58:44.548Z,219.38
2017-10-22T08:59:44.533Z,264.38
2017-10-22T09:01:37.949Z,219.38
2017-10-22T09:02:37.955Z,180.00
2017-10-22T09:04:31.351Z,163.13
2017-10-22T09:05:34.064Z,180.00
2017-10-22T09:07:24.723Z,196.88
2017-10-22T09:08:24.749Z,230.63
2017-10-22T09:10:18.146Z,478.13
2017-10-22T09:11:18.131Z,787.50
2017-10-22T09:13:11.685Z,196.88
2017-10-22T09:14:11.617Z,174.38
2017-10-22T09:16:05.015Z,196.88
2017-10-22T09:17:05.023Z,230.63
2017-10-22T09:18:58.599Z,264.38
2017-10-22T09:19:58.440Z,292.50
2017-10-22T09:21:51.804Z,360.00
2017-10-22T09:22:51.811Z,421.88
2017-10-22T09:24:45.299Z,315.00
2017-10-22T09:25:45.260Z,331.88
2017-10-22T09:27:38.856Z,320.63
2017-10-22T09:28:38.660Z,365.63
2017-10-22T09:30:33.668Z,461.25
2017-10-22T09:31:32.070Z,472.50
2017-10-22T09:33:25.471Z,551.25
2017-10-22T09:34:25.479Z,517.50
2017-10-22T09:36:18.875Z,517.50
2017-10-22T09:37:18.855Z,455.63
2017-10-22T09:39:12.247Z,551.25
2017-10-22T09:40:12.368Z,568.13
2017-10-22T09:42:07.657Z,523.13
2017-10-22T09:43:08.129Z,545.63
2017-10-22T09:45:01.649Z,1490.63
2017-10-22T09:46:02.622Z,1873.13
2017-10-22T09:47:54.566Z,2025.00
2017-10-22T09:48:56.083Z,2019.38
2017-10-22T09:50:50.235Z,1935.00
2017-10-22T09:51:47.773Z,2137.50
2017-10-22T09:53:43.487Z,1344.38
2017-10-22T09:54:43.789Z,433.13
2017-10-22T09:56:39.627Z,523.13
2017-10-22T09:57:38.628Z,1816.88
2017-10-22T09:59:31.978Z,483.75
2017-10-22T10:00:33.526Z,495.00
2017-10-22T10:02:27.928Z,416.25
2017-10-22T10:03:27.631Z,444.38
2017-10-22T10:05:24.111Z,410.63
2017-10-22T10:06:21.070Z,1164.38
2017-10-22T10:08:14.298Z,320.63
2017-10-22T10:09:14.529Z,2126.25
2017-10-22T10:11:09.135Z,2520.00
2017-10-22T10:12:07.763Z,2469.38
2017-10-22T10:14:03.508Z,945.00
2017-10-22T10:15:03.765Z,579.38
2017-10-22T10:17:00.399Z,528.75
2017-10-22T10:18:05.282Z,472.50
2017-10-22T10:19:53.212Z,393.75
2017-10-22T10:20:50.930Z,258.75
2017-10-22T10:22:45.625Z,219.38
2017-10-22T10:23:45.659Z,213.75
2017-10-22T10:25:40.995Z,298.13
2017-10-22T10:26:48.510Z,343.13
2017-10-22T10:28:35.683Z,309.38
2017-10-22T10:29:37.716Z,236.25
2017-10-22T10:30:43.684Z,241.88
2017-10-22T10:32:29.117Z,191.25
2017-10-22T10:33:29.878Z,135.00
2017-10-22T10:36:24.653Z,405.00
2017-10-22T10:38:19.205Z,1653.75
2017-10-22T10:39:20.539Z,3116.25
2017-10-22T10:41:14.329Z,2981.25
2017-10-22T10:43:20.665Z,326.25
2017-10-22T10:45:22.220Z,208.13
2017-10-22T10:46:28.162Z,2610.00
2017-10-22T10:48:15.852Z,2160.00
2017-10-22T10:49:23.484Z,691.88
2017-10-22T10:50:24.811Z,2840.63
2017-10-22T10:52:11.692Z,663.75
2017-10-22T10:53:16.476Z,697.50
2017-10-22T10:55:05.781Z,568.13
2017-10-22T10:56:12.261Z,556.88
2017-10-22T10:58:00.343Z,500.63
2017-10-22T10:59:00.121Z,1929.38
2017-10-22T11:00:53.284Z,320.63
2017-10-22T11:01:53.344Z,376.88
2017-10-22T11:03:47.083Z,303.75
2017-10-22T11:04:47.825Z,264.38
2017-10-22T11:06:44.109Z,292.50
2017-10-22T11:07:43.562Z,258.75
2017-10-22T11:09:37.366Z,225.00
2017-10-22T11:10:37.057Z,241.88
2017-10-22T11:12:30.504Z,168.75
2017-10-22T11:13:30.426Z,208.13
2017-10-22T11:15:24.870Z,315.00
2017-10-22T11:16:25.263Z,331.88
2017-10-22T11:17:32.327Z,270.00
2017-10-22T11:19:46.135Z,264.38
2017-10-22T11:20:47.779Z,258.75
2017-10-22T11:22:40.460Z,213.75
2017-10-22T11:23:40.378Z,202.50
2017-10-22T11:25:33.752Z,196.88
2017-10-22T11:26:33.770Z,236.25
2017-10-22T11:28:27.236Z,230.63
2017-10-22T11:29:27.307Z,180.00
2017-10-22T11:31:20.617Z,208.13
2017-10-22T11:32:20.583Z,174.38
2017-10-22T11:34:13.994Z,140.63
2017-10-22T11:35:13.999Z,123.75
2017-10-22T11:37:07.378Z,123.75
2017-10-22T11:38:07.359Z,90.00
2017-10-22T11:40:01.207Z,101.25
2017-10-22T11:41:00.775Z,84.38
2017-10-22T11:42:55.358Z,129.38
2017-10-22T11:43:55.461Z,129.38
2017-10-22T11:45:48.110Z,174.38
2017-10-22T11:46:48.233Z,641.25
2017-10-22T11:48:41.541Z,1001.25
2017-10-22T11:49:41.534Z,376.88
2017-10-22T11:51:34.936Z,309.38
2017-10-22T11:52:34.950Z,247.50
2017-10-22T11:54:28.318Z,163.13
2017-10-22T11:55:28.341Z,196.88
2017-10-22T11:57:21.744Z,787.50
2017-10-22T11:58:21.827Z,585.00
2017-10-22T12:00:15.301Z,860.63
2017-10-22T12:01:15.928Z,652.50
2017-10-22T12:03:10.014Z,888.75
2017-10-22T12:04:08.740Z,1096.88
2017-10-22T12:06:05.178Z,1181.25
2017-10-22T12:07:05.328Z,354.38
2017-10-22T12:08:59.450Z,258.75
2017-10-22T12:09:59.536Z,247.50
2017-10-22T12:11:52.869Z,258.75
2017-10-22T12:12:52.868Z,275.63
2017-10-22T12:14:46.246Z,180.00
2017-10-22T12:15:46.282Z,163.13
2017-10-22T12:17:39.679Z,202.50
2017-10-22T12:18:39.657Z,331.88
2017-10-22T12:20:32.600Z,286.88
2017-10-22T12:21:32.572Z,247.50
2017-10-22T12:23:25.974Z,140.63
2017-10-22T12:24:25.978Z,135.00
2017-10-22T12:26:19.357Z,185.63
2017-10-22T12:27:19.361Z,180.00
2017-10-22T12:29:12.818Z,174.38
2017-10-22T12:30:12.800Z,202.50
2017-10-22T12:32:06.193Z,360.00
2017-10-22T12:33:06.225Z,376.88
2017-10-22T12:34:59.619Z,911.25
2017-10-22T12:35:59.615Z,770.63
2017-10-22T12:37:52.979Z,866.25
2017-10-22T12:38:52.987Z,956.25
2017-10-22T12:40:46.413Z,652.50
2017-10-22T12:41:46.395Z,579.38
2017-10-22T12:43:39.809Z,641.25
2017-10-22T12:44:39.798Z,461.25
2017-10-22T12:46:33.217Z,247.50
2017-10-22T12:47:33.199Z,388.13
2017-10-22T12:49:26.585Z,528.75
2017-10-22T12:50:26.598Z,601.88
2017-10-22T12:52:20.045Z,534.38
2017-10-22T12:53:19.994Z,579.38
2017-10-22T12:55:13.395Z,545.63
2017-10-22T12:56:13.394Z,556.88
2017-10-22T12:58:06.812Z,613.13
2017-10-22T12:59:06.796Z,596.25
2017-10-22T13:00:59.698Z,393.75
2017-10-22T13:01:59.710Z,326.25
2017-10-22T13:03:53.224Z,556.88
2017-10-22T13:04:53.203Z,523.13
2017-10-22T13:06:46.591Z,506.25
2017-10-22T13:07:46.604Z,534.38
2017-10-22T13:09:40.027Z,568.13
2017-10-22T13:10:40.017Z,585.00
2017-10-22T13:12:33.419Z,562.50
2017-10-22T13:13:33.426Z,545.63
2017-10-22T13:15:26.836Z,506.25
2017-10-22T13:16:26.824Z,461.25
2017-10-22T13:18:20.231Z,365.63
2017-10-22T13:19:20.232Z,286.88
2017-10-22T13:21:13.674Z,286.88
2017-10-22T13:22:14.552Z,337.50
2017-10-22T13:24:16.153Z,253.13
2017-10-22T13:25:17.077Z,309.38
2017-10-22T13:27:02.872Z,286.88
2017-10-22T13:28:02.737Z,303.75
2017-10-22T13:29:55.881Z,264.38
2017-10-22T13:30:55.886Z,208.13
2017-10-22T13:32:49.365Z,157.50
2017-10-22T13:33:50.020Z,151.88
2017-10-22T13:35:43.115Z,168.75
2017-10-22T13:36:43.816Z,281.25
2017-10-22T13:38:35.635Z,258.75
2017-10-22T13:39:35.621Z,230.63
2017-10-22T13:41:29.015Z,213.75
2017-10-22T13:42:29.022Z,208.13
2017-10-22T13:44:22.475Z,202.50
2017-10-22T13:45:22.425Z,196.88
2017-10-22T13:47:15.817Z,191.25
2017-10-22T13:48:15.822Z,191.25
2017-10-22T13:50:08.742Z,191.25
2017-10-22T13:51:08.727Z,196.88
2017-10-22T13:53:02.488Z,202.50
2017-10-22T13:54:02.499Z,225.00
2017-10-22T13:55:55.915Z,208.13
2017-10-22T13:56:55.904Z,219.38
2017-10-22T13:58:49.303Z,208.13
2017-10-22T13:59:49.307Z,225.00
2017-10-22T14:01:43.808Z,236.25
2017-10-22T14:02:43.774Z,275.63
2017-10-22T14:04:37.409Z,225.00
2017-10-22T14:05:38.689Z,241.88
2017-10-22T14:07:30.807Z,348.75
2017-10-22T14:08:30.558Z,348.75
2017-10-22T14:10:24.019Z,331.88
2017-10-22T14:11:24.568Z,320.63
2017-10-22T14:13:21.965Z,292.50
2017-10-22T14:14:17.662Z,298.13
2017-10-22T14:16:11.034Z,393.75
2017-10-22T14:17:11.765Z,393.75
2017-10-22T14:19:04.547Z,326.25
2017-10-22T14:20:04.524Z,270.00
2017-10-22T14:22:01.430Z,196.88
2017-10-22T14:22:59.457Z,185.63
2017-10-22T14:24:50.922Z,140.63
2017-10-22T14:25:50.924Z,140.63
2017-10-22T14:27:45.347Z,123.75
2017-10-22T14:28:45.821Z,118.13
2017-10-22T14:30:43.787Z,112.50
2017-10-22T14:31:39.286Z,112.50
2017-10-22T14:33:35.091Z,112.50
2017-10-22T14:36:12.947Z,112.50
2017-10-22T14:37:12.951Z,112.50
2017-10-22T14:39:06.487Z,106.88
2017-10-22T14:40:07.427Z,106.88
2017-10-22T14:41:59.819Z,106.88
2017-10-22T14:42:59.820Z,101.25
2017-10-22T14:44:53.209Z,90.00
2017-10-22T14:45:53.205Z,84.38
2017-10-22T14:47:46.622Z,95.63
2017-10-22T14:48:47.304Z,95.63
2017-10-22T14:50:39.633Z,112.50
2017-10-22T14:51:40.599Z,106.88
2017-10-22T14:53:34.066Z,118.13
2017-10-22T14:54:34.067Z,146.25
2017-10-22T14:56:27.533Z,146.25
2017-10-22T14:57:27.446Z,95.63
2017-10-22T14:59:20.903Z,146.25
2017-10-22T15:00:20.830Z,129.38
2017-10-22T15:02:14.210Z,90.00
2017-10-22T15:03:14.252Z,95.63
2017-10-22T15:05:07.626Z,106.88
2017-10-22T15:06:07.656Z,90.00
2017-10-22T15:08:01.890Z,106.88
2017-10-22T15:09:01.939Z,106.88
2017-10-22T15:10:54.615Z,106.88
2017-10-22T15:11:54.472Z,95.63
2017-10-22T15:13:48.894Z,101.25
2017-10-22T15:14:48.875Z,106.88
2017-10-22T15:16:43.251Z,112.50
2017-10-22T15:17:43.386Z,73.13
2017-10-22T15:19:36.831Z,61.88
2017-10-22T15:20:36.742Z,67.50
2017-10-22T15:22:30.284Z,73.13
2017-10-22T15:23:30.229Z,67.50
2017-10-22T15:25:24.690Z,67.50
2017-10-22T15:26:24.573Z,61.88
2017-10-22T15:28:17.979Z,56.25
2017-10-22T15:29:18.013Z,56.25
2017-10-22T15:31:11.438Z,73.13
2017-10-22T15:32:11.381Z,90.00
2017-10-22T15:34:05.474Z,106.88
2017-10-22T15:35:05.375Z,78.75
2017-10-22T15:36:58.813Z,50.63
2017-10-22T15:37:58.841Z,45.00
2017-10-22T15:39:53.212Z,39.38
2017-10-22T15:40:53.218Z,39.38
2017-10-22T15:42:46.589Z,50.63
2017-10-22T15:43:46.545Z,56.25
2017-10-22T15:45:40.069Z,50.63
2017-10-22T15:46:40.053Z,45.00
2017-10-22T15:48:34.511Z,39.38
2017-10-22T15:49:34.446Z,39.38
2017-10-22T15:51:27.760Z,28.13
2017-10-22T15:52:35.391Z,22.50
2017-10-22T15:54:21.223Z,16.88
2017-10-22T15:55:21.371Z,16.88
2017-10-22T15:57:14.574Z,22.50
2017-10-22T15:58:14.593Z,16.88
2017-10-22T16:00:08.002Z,16.88
2017-10-22T16:01:08.015Z,16.88
2017-10-22T16:03:01.359Z,16.88
2017-10-22T16:04:01.481Z,11.25
2017-10-22T16:05:54.800Z,11.25
2017-10-22T16:06:54.788Z,11.25
2017-10-22T16:08:48.304Z,11.25
2017-10-22T16:09:48.219Z,11.25
2017-10-22T16:11:41.706Z,11.25
2017-10-22T16:12:49.137Z,11.25
2017-10-22T16:14:35.021Z,5.63
2017-10-22T16:15:35.011Z,5.63
2017-10-22T16:17:28.488Z,5.63
2017-10-22T16:18:28.409Z,5.63
2017-10-22T16:20:21.804Z,5.63
2017-10-22T16:21:21.797Z,0.00
2017-10-22T16:23:15.145Z,0.00
2017-10-22T16:24:15.175Z,0.00
2017-10-22T16:26:08.738Z,0.00
2017-10-22T16:27:08.594Z,0.00
2017-10-22T16:29:02.072Z,0.00
2017-10-22T16:30:01.981Z,0.00
2017-10-22T16:31:55.389Z,0.00
2017-10-22T16:33:03.111Z,0.00
2017-10-22T16:34:48.750Z,0.00
2017-10-22T16:35:48.761Z,0.00
2017-10-22T16:37:42.196Z,0.00
2017-10-22T16:38:42.593Z,0.00
2017-10-22T16:40:47.444Z,0.00
2017-10-22T16:43:08.197Z,0.00
2017-10-22T16:44:09.342Z,0.00
2017-10-22T16:45:54.868Z,0.00
2017-10-22T16:47:03.549Z,0.00
2017-10-22T16:48:49.193Z,0.00
2017-10-22T16:49:49.202Z,0.00
2017-10-22T16:51:42.673Z,0.00
2017-10-22T16:52:42.603Z,0.00
2017-10-22T16:54:35.979Z,0.00
2017-10-22T16:55:35.982Z,0.00
2017-10-22T16:57:29.393Z,0.00
2017-10-22T16:58:29.380Z,0.00
2017-10-22T17:00:22.765Z,0.00
2017-10-22T17:01:22.769Z,0.00
2017-10-22T17:03:16.181Z,0.00
2017-10-22T17:04:16.162Z,0.00
2017-10-22T17:06:09.550Z,0.00
2017-10-22T17:07:09.555Z,0.00
2017-10-22T17:09:02.961Z,0.00
2017-10-22T17:10:02.948Z,0.00
2017-10-22T17:11:56.385Z,0.00
2017-10-22T17:12:56.350Z,0.00
2017-10-22T17:14:49.778Z,0.00
2017-10-22T17:15:49.753Z,0.00
2017-10-22T17:17:43.165Z,0.00
2017-10-22T17:18:43.147Z,0.00
2017-10-22T17:20:36.531Z,0.00
2017-10-22T17:21:36.538Z,0.00
2017-10-22T17:23:29.967Z,0.00
2017-10-22T17:24:29.937Z,0.00
2017-10-22T17:26:23.322Z,0.00
2017-10-22T17:27:23.324Z,0.00
2017-10-22T17:29:16.734Z,0.00
2017-10-22T17:30:16.723Z,0.00
2017-10-22T17:32:10.107Z,0.00
2017-10-22T17:33:10.108Z,0.00
2017-10-22T17:35:04.569Z,0.00
2017-10-22T17:36:04.580Z,0.00
2017-10-22T17:37:58.959Z,0.00
2017-10-22T17:38:59.001Z,0.00
2017-10-22T17:40:52.401Z,0.00
2017-10-22T17:41:52.372Z,0.00
2017-10-22T17:43:45.768Z,0.00
2017-10-22T17:44:45.747Z,0.00
2017-10-22T17:46:40.192Z,0.00
2017-10-22T17:47:40.161Z,0.00
2017-10-22T17:49:33.623Z,0.00
2017-10-22T17:50:33.572Z,0.00
2017-10-22T17:52:26.967Z,0.00
2017-10-22T17:53:27.015Z,0.00
2017-10-22T17:55:20.424Z,0.00
2017-10-22T17:56:20.347Z,0.00
2017-10-22T17:58:13.805Z,0.00
2017-10-22T17:59:13.764Z,0.00
2017-10-22T18:01:07.180Z,0.00
2017-10-22T18:02:07.236Z,0.00
2017-10-22T18:04:00.584Z,0.00
2017-10-22T18:05:08.153Z,0.00
2017-10-22T18:06:53.987Z,0.00
2017-10-22T18:07:53.957Z,0.00
2017-10-22T18:09:47.344Z,0.00
2017-10-22T18:10:47.362Z,0.00
2017-10-22T18:12:40.773Z,0.00
2017-10-22T18:13:40.789Z,0.00
2017-10-22T18:15:34.129Z,0.00
2017-10-22T18:16:34.171Z,0.00
2017-10-22T18:18:27.533Z,0.00
2017-10-22T18:19:27.522Z,0.00
2017-10-22T18:21:20.917Z,0.00
2017-10-22T18:22:20.914Z,0.00
2017-10-22T18:24:14.368Z,0.00
2017-10-22T18:25:14.340Z,0.00
2017-10-22T18:27:07.750Z,0.00
2017-10-22T18:28:07.742Z,0.00
2017-10-22T18:30:01.194Z,0.00
2017-10-22T18:31:01.140Z,0.00
2017-10-22T18:32:54.516Z,0.00
2017-10-22T18:33:54.530Z,0.00
2017-10-22T18:35:47.942Z,0.00
2017-10-22T18:36:47.926Z,0.00
2017-10-22T18:38:41.322Z,0.00
2017-10-22T18:39:41.311Z,0.00
2017-10-22T18:41:34.761Z,0.00
2017-10-22T18:42:34.730Z,0.00